Time;durP1;ratioP1;P1;durP2;ratioP2;P2;SDS_P1;SDS_P2;PMS_P1;PMS_P2;Temp;Humidity;BMP_temperature;BMP_pressure;BME280_temperature;BME280_humidity;BME280_pressure;Samples;Min_cycle;Max_cycle;Signal;HPM_P1;HPM_P2
2020/12/24 09:00:22;;;;;;;;;;;;;;;;;;5069613;27;20594;-62
2020/12/24 09:02:48;;;;;;;;;;;;;;;;;;5013847;28;66939;-63
2020/12/24 09:07:28;;;;;;;20.15;8.20;;;;;;;22.08;60.99;99186.59;5126770;27;20326;-62
2020/12/24 09:10:26;;;;;;;14.73;9.45;;;;;;;22.55;59.33;99182.13;5066508;28;90323;-62
2020/12/24 09:13:03;;;;;;;12.88;7.97;;;;;;;22.89;58.21;99192.19;5028525;28;20058;-62
2020/12/24 09:17:29;;;;;;;20.55;9.45;;;;;;;23.32;56.55;99187.38;5046981;28;70551;-61
2020/12/24 09:20:11;;;;;;;15.88;7.75;;;;;;;23.60;56.33;99195.78;5053062;28;20049;-64
2020/12/24 09:22:51;;;;;;;21.35;8.65;;;;;;;23.84;55.62;99190.88;5060728;28;20049;-64
2020/12/24 09:25:41;;;;;;;20.52;10.27;;;;;;;24.08;55.07;99195.44;5061552;28;20492;-63
2020/12/24 09:28:24;;;;;;;15.15;9.20;;;;;;;24.29;54.42;99186.66;5047990;28;98489;-62
2020/12/24 09:33:41;;;;;;;20.25;9.50;;;;;;;24.71;53.83;99174.31;5165868;27;20353;-64
2020/12/24 09:36:16;;;;;;;18.88;10.18;;;;;;;24.77;53.19;99161.06;5137066;27;20046;-64
2020/12/24 09:39:58;;;;;;;18.17;9.80;;;;;;;24.88;52.13;99168.09;5066735;27;20472;-65
2020/12/24 09:42:26;;;;;;;20.92;9.57;;;;;;;25.05;52.22;99171.00;5072035;28;20061;-63
2020/12/24 09:44:53;;;;;;;16.75;9.90;;;;;;;25.32;52.27;99168.41;5065675;28;20800;-70
2020/12/24 09:47:22;;;;;;;32.40;11.15;;;;;;;25.39;52.00;99163.19;5085377;28;87010;-71
2020/12/24 09:49:50;;;;;;;13.10;9.50;;;;;;;25.42;52.10;99155.00;5102429;28;20097;-70
2020/12/24 09:52:18;;;;;;;18.65;11.23;;;;;;;25.43;52.26;99144.66;5084520;28;20055;-70
2020/12/24 09:54:45;;;;;;;17.23;10.68;;;;;;;25.42;52.29;99143.03;5095916;28;20036;-69
2020/12/24 09:57:13;;;;;;;18.92;10.52;;;;;;;25.41;52.26;99163.69;5083966;28;20047;-70
2020/12/24 09:59:41;;;;;;;22.98;9.65;;;;;;;25.40;52.33;99165.66;5082488;28;20049;-69
2020/12/24 10:04:11;;;;;;;15.65;9.40;;;;;;;25.36;52.30;99141.50;5110889;27;20401;-68
2020/12/24 10:06:39;;;;;;;14.93;9.13;;;;;;;25.32;52.08;99144.09;5094982;27;76511;-69
2020/12/24 10:09:07;;;;;;;15.60;9.98;;;;;;;25.29;51.90;99133.59;5074552;28;20051;-69
2020/12/24 10:11:35;;;;;;;17.25;9.57;;;;;;;25.30;52.13;99138.03;5086906;28;20142;-47
2020/12/24 10:14:03;;;;;;;17.02;9.63;;;;;;;25.38;52.19;99137.25;5072868;28;20181;-62
2020/12/24 10:19:39;;;;;;;13.18;8.65;;;;;;;23.01;46.47;99115.53;5155893;27;20859;-73
2020/12/24 10:22:07;;;;;;;13.82;9.25;;;;;;;21.06;47.13;99124.63;5118117;27;20403;-73
2020/12/24 10:24:51;;;;;;;12.10;7.88;;;;;;;19.20;48.74;99096.22;5095483;28;20051;-74
2020/12/24 10:27:20;;;;;;;11.43;7.72;;;;;;;17.99;50.44;99118.72;5069063;28;20055;-73
2020/12/24 10:29:48;;;;;;;17.60;9.30;;;;;;;16.94;51.70;99092.78;5089989;28;20040;-74
2020/12/24 10:32:19;;;;;;;14.57;8.10;;;;;;;16.16;52.62;99105.25;5110354;28;20048;-74
2020/12/24 10:34:48;;;;;;;17.85;9.65;;;;;;;15.48;53.49;99113.72;5087892;28;20051;-72
2020/12/24 10:37:26;;;;;;;12.95;7.30;;;;;;;14.86;54.48;99107.31;5070223;28;20050;-74
2020/12/24 10:39:54;;;;;;;17.52;8.05;;;;;;;14.40;55.10;99108.41;5092621;28;20050;-72
2020/12/24 10:42:22;;;;;;;13.73;6.18;;;;;;;13.99;55.67;99108.50;5089719;28;20956;-73
2020/12/24 10:44:50;;;;;;;15.30;7.10;;;;;;;13.59;55.97;99120.31;5073783;28;20901;-72
2020/12/24 10:47:18;;;;;;;12.38;7.60;;;;;;;13.25;56.34;99114.59;5085570;28;20116;-74
2020/12/24 10:49:45;;;;;;;13.50;6.85;;;;;;;12.98;56.84;99107.94;5092005;28;20059;-73
2020/12/24 10:52:14;;;;;;;15.00;7.25;;;;;;;12.78;57.36;99111.00;5051864;28;20418;-73
2020/12/24 10:54:41;;;;;;;12.02;6.97;;;;;;;12.60;57.99;99101.00;5096229;28;20117;-73
2020/12/24 10:57:10;;;;;;;13.00;7.28;;;;;;;-146.63;100.00;67074.28;5062648;28;20056;-73
2020/12/24 10:59:38;;;;;;;13.77;7.30;;;;;;;-146.63;100.00;67074.28;5051193;28;20098;-73
2020/12/24 11:02:06;;;;;;;11.65;6.63;;;;;;;-146.63;100.00;67074.28;5060159;28;20058;-73
2020/12/24 11:04:35;;;;;;;12.27;7.70;;;;;;;-146.63;100.00;67074.28;5045757;28;20869;-74
2020/12/24 11:07:03;;;;;;;16.90;8.73;;;;;;;-146.63;100.00;67074.28;5072258;28;20493;-74
2020/12/24 11:09:32;;;;;;;17.48;9.65;;;;;;;-146.63;100.00;67074.28;5071189;28;20055;-73
2020/12/24 11:12:00;;;;;;;17.27;11.00;;;;;;;-146.63;100.00;67074.28;5053617;28;20039;-74
2020/12/24 11:14:29;;;;;;;13.23;8.13;;;;;;;-146.63;100.00;67074.28;5051459;28;20060;-72
2020/12/24 11:17:43;;;;;;;22.05;11.77;;;;;;;;;;5112819;27;20522;-74
2020/12/24 11:20:11;;;;;;;21.33;11.27;;;;;;;;;;5091310;28;20063;-73
2020/12/24 11:22:39;;;;;;;15.25;7.88;;;;;;;;;;5126512;27;20043;-72
2020/12/24 11:25:07;;;;;;;17.92;9.07;;;;;;;;;;5093786;28;20413;-74
2020/12/24 11:27:34;;;;;;;21.88;12.13;;;;;;;;;;5106872;27;20530;-73
2020/12/24 11:30:03;;;;;;;20.02;11.50;;;;;;;;;;5117098;27;20139;-73
2020/12/24 11:32:31;;;;;;;17.38;10.27;;;;;;;;;;5101087;28;20040;-72
2020/12/24 11:34:59;;;;;;;15.65;8.48;;;;;;;;;;5067831;27;89544;-74
2020/12/24 11:37:27;;;;;;;15.30;9.15;;;;;;;;;;5079453;28;20103;-75
2020/12/24 11:39:55;;;;;;;17.20;10.52;;;;;;;;;;5060755;28;20571;-73
2020/12/24 11:42:23;;;;;;;14.35;9.05;;;;;;;;;;5045386;28;20064;-74
2020/12/24 11:44:50;;;;;;;12.57;6.75;;;;;;;;;;5051167;28;20790;-73
2020/12/24 11:47:18;;;;;;;14.65;8.60;;;;;;;;;;5067879;28;20052;-77
2020/12/24 11:49:46;;;;;;;14.07;8.18;;;;;;;;;;5014656;28;20559;-72
2020/12/24 11:52:13;;;;;;;12.88;7.65;;;;;;;;;;5049804;28;20045;-73
2020/12/24 11:54:42;;;;;;;15.25;6.45;;;;;;;;;;5066793;28;20086;-78
2020/12/24 11:57:10;;;;;;;15.00;7.25;;;;;;;;;;5068180;28;20059;-73
2020/12/24 11:59:39;;;;;;;14.65;6.20;;;;;;;;;;5070562;28;20141;-73
2020/12/24 12:02:07;;;;;;;9.77;5.03;;;;;;;;;;5084799;28;20122;-74
2020/12/24 12:04:35;;;;;;;12.25;6.93;;;;;;;;;;5065846;28;20041;-75
2020/12/24 12:07:03;;;;;;;14.95;7.60;;;;;;;;;;5089693;28;20048;-73
2020/12/24 12:09:31;;;;;;;15.18;7.50;;;;;;;;;;5089196;28;20072;-77
2020/12/24 12:11:58;;;;;;;14.07;7.47;;;;;;;;;;5061794;28;20060;-76
2020/12/24 12:14:26;;;;;;;16.65;8.05;;;;;;;;;;5067717;28;20064;-76
2020/12/24 12:16:54;;;;;;;20.02;9.15;;;;;;;;;;5030315;28;20052;-76
2020/12/24 12:19:22;;;;;;;18.40;9.00;;;;;;;;;;5032082;28;20049;-76
2020/12/24 12:21:50;;;;;;;22.15;10.23;;;;;;;;;;5034242;28;20045;-77
2020/12/24 12:24:18;;;;;;;15.57;9.07;;;;;;;;;;5059144;28;20536;-76
2020/12/24 12:26:46;;;;;;;18.90;11.98;;;;;;;;;;5056026;28;20079;-77
2020/12/24 12:29:14;;;;;;;27.17;15.13;;;;;;;;;;5054979;28;20110;-76
2020/12/24 12:31:42;;;;;;;24.77;14.25;;;;;;;;;;5053539;28;20129;-72
2020/12/24 12:34:10;;;;;;;26.25;17.63;;;;;;;;;;5038800;28;20579;-72
2020/12/24 12:36:38;;;;;;;28.42;19.10;;;;;;;;;;5054344;28;20045;-73
2020/12/24 12:41:14;;;;;;;18.15;8.95;;;;;;;;;;5118414;27;20463;-75
2020/12/24 12:43:42;;;;;;;11.82;7.38;;;;;;;;;;5094276;28;20143;-72
2020/12/24 12:46:10;;;;;;;17.33;9.57;;;;;;;;;;5090958;28;20047;-74
2020/12/24 12:48:38;;;;;;;19.48;11.07;;;;;;;;;;5066856;28;20270;-74
2020/12/24 12:51:10;;;;;;;21.25;13.13;;;;;;;;;;5094913;27;20052;-74
2020/12/24 12:53:37;;;;;;;17.10;11.57;;;;;;;;;;5080049;28;20116;-75
2020/12/24 12:56:10;;;;;;;26.90;13.52;;;;;;;;;;5109921;28;20047;-76
2020/12/24 12:58:37;;;;;;;;;;;;;;;;;;5092345;28;20547;-76
2020/12/24 13:01:05;;;;;;;18.60;10.15;;;;;;;;;;5075391;28;20368;-81
2020/12/24 13:03:32;;;;;;;21.40;14.57;;;;;;;;;;5095854;28;20055;-78
2020/12/24 13:06:00;;;;;;;19.85;13.13;;;;;;;;;;5110411;27;20054;-78
2020/12/24 13:08:29;;;;;;;19.45;12.68;;;;;;;;;;5073230;28;20132;-78
2020/12/24 13:10:56;;;;;;;25.90;14.48;;;;;;;;;;5084208;28;20458;-78
2020/12/24 13:13:24;;;;;;;24.73;13.50;;;;;;;;;;5072477;28;20433;-78
2020/12/24 13:15:51;;;;;;;28.90;16.33;;;;;;;;;;5059969;28;20062;-78
2020/12/24 13:18:19;;;;;;;18.77;10.95;;;;;;;;;;5072003;28;20047;-79
2020/12/24 13:20:46;;;;;;;20.35;10.18;;;;;;;;;;5091292;28;20055;-78
2020/12/24 13:23:14;;;;;;;15.73;9.15;;;;;;;;;;5080665;28;20432;-78
2020/12/24 13:25:41;;;;;;;20.27;10.02;;;;;;;;;;5094849;28;20046;-78
2020/12/24 13:29:56;;;;;;;20.60;9.77;;;;;;;;;;5157572;27;20445;-77
2020/12/24 13:32:24;;;;;;;19.60;11.88;;;;;;;;;;5090254;27;20473;-78
2020/12/24 13:34:51;;;;;;;23.25;10.65;;;;;;;;;;5118115;27;20054;-78
2020/12/24 13:37:19;;;;;;;21.75;12.20;;;;;;;;;;5057244;28;20060;-78
2020/12/24 13:39:47;;;;;;;17.90;12.13;;;;;;;;;;5063728;28;20052;-78
2020/12/24 13:42:14;;;;;;;24.70;13.30;;;;;;;;;;5055199;28;20098;-77
2020/12/24 13:44:42;;;;;;;23.30;14.40;;;;;;;;;;5073304;28;20063;-77
2020/12/24 13:47:10;;;;;;;21.05;11.15;;;;;;;;;;5073690;28;20060;-80
2020/12/24 13:49:38;;;;;;;21.63;13.40;;;;;;;;;;5074861;28;20048;-78
2020/12/24 13:52:06;;;;;;;17.23;9.38;;;;;;;;;;5050662;28;20106;-78
2020/12/24 13:54:34;;;;;;;23.10;17.35;;;;;;;;;;5015350;28;20120;-78
2020/12/24 13:57:10;;;;;;;24.13;11.60;;;;;;;;;;5042522;28;20059;-79
2020/12/24 13:59:40;;;;;;;22.08;12.82;;;;;;;;;;5021663;28;20461;-79
2020/12/24 14:02:08;;;;;;;23.05;10.43;;;;;;;;;;5034375;28;20589;-79
2020/12/24 14:04:36;;;;;;;19.55;9.88;;;;;;;;;;5048949;28;20054;-79
2020/12/24 14:07:04;;;;;;;28.48;15.85;;;;;;;;;;5065771;28;20070;-80
2020/12/24 14:09:32;;;;;;;19.25;11.88;;;;;;;;;;5040245;28;20171;-79
2020/12/24 14:12:00;;;;;;;35.58;16.77;;;;;;;;;;5021346;28;20074;-79
2020/12/24 14:14:28;;;;;;;24.80;13.52;;;;;;;;;;5073693;28;20058;-79
2020/12/24 14:16:56;;;;;;;27.40;15.13;;;;;;;;;;5085431;28;20040;-79
2020/12/24 14:19:25;;;;;;;24.38;12.90;;;;;;;;;;5071216;28;20051;-78
2020/12/24 14:21:59;;;;;;;31.77;14.95;;;;;;;;;;5084119;28;20048;-74
2020/12/24 14:24:33;;;;;;;29.10;13.95;;;;;;;;;;5087281;28;20048;-74
2020/12/24 14:27:03;;;;;;;28.42;16.05;;;;;;;;;;5069556;28;20051;-76
2020/12/24 14:29:31;;;;;;;25.85;13.20;;;;;;;;;;5063314;28;20859;-76
2020/12/24 14:31:59;;;;;;;26.63;15.07;;;;;;;;;;5063180;28;20114;-77
2020/12/24 14:34:27;;;;;;;21.35;9.85;;;;;;;;;;5080427;28;20478;-75
2020/12/24 14:36:56;;;;;;;20.30;10.20;;;;;;;;;;5086897;28;20193;-75
2020/12/24 14:39:26;;;;;;;19.02;10.15;;;;;;;;;;5060571;28;20824;-75
2020/12/24 14:41:58;;;;;;;26.23;12.32;;;;;;;;;;5040485;28;20077;-75
2020/12/24 14:44:27;;;;;;;25.52;13.88;;;;;;;;;;5057466;28;20123;-78
2020/12/24 14:46:55;;;;;;;24.27;13.55;;;;;;;;;;5055038;28;20385;-79
2020/12/24 14:49:23;;;;;;;25.58;14.35;;;;;;;;;;5079208;28;20143;-78
2020/12/24 14:51:54;;;;;;;31.35;17.45;;;;;;;;;;5060766;28;20467;-75
2020/12/24 14:54:22;;;;;;;31.33;17.77;;;;;;;;;;5058793;28;20896;-77
2020/12/24 14:56:50;;;;;;;34.83;19.20;;;;;;;;;;5074724;28;20059;-78
2020/12/24 14:59:17;;;;;;;48.90;23.83;;;;;;;;;;5052869;28;20056;-77
2020/12/24 15:01:45;;;;;;;44.78;24.42;;;;;;;;;;5070677;28;20061;-78
2020/12/24 15:04:13;;;;;;;39.75;20.77;;;;;;;;;;5054052;28;20079;-78
2020/12/24 15:06:40;;;;;;;42.70;21.33;;;;;;;;;;5076133;28;20098;-78
2020/12/24 15:09:08;;;;;;;38.85;21.00;;;;;;;;;;5036633;28;20130;-78
2020/12/24 15:11:36;;;;;;;30.85;17.02;;;;;;;;;;5068625;28;20072;-78
2020/12/24 15:14:03;;;;;;;28.25;13.90;;;;;;;;;;5071303;28;20064;-78
2020/12/24 15:16:31;;;;;;;54.45;32.92;;;;;;;;;;5052691;28;20048;-78
2020/12/24 15:18:59;;;;;;;37.72;17.55;;;;;;;;;;5052457;28;20060;-77
2020/12/24 15:21:26;;;;;;;40.13;18.58;;;;;;;;;;5052853;28;20040;-78
2020/12/24 15:23:54;;;;;;;45.10;21.38;;;;;;;;;;5038719;28;20399;-78
2020/12/24 15:26:21;;;;;;;41.22;21.13;;;;;;;;;;5077640;28;20056;-82
2020/12/24 15:28:49;;;;;;;44.15;22.25;;;;;;;;;;5063966;28;20503;-77
2020/12/24 15:31:18;;;;;;;38.05;17.90;;;;;;;;;;5055580;28;20049;-78
2020/12/24 15:33:46;;;;;;;32.75;16.42;;;;;;;;;;5070162;28;20064;-78
2020/12/24 15:36:13;;;;;;;30.27;16.17;;;;;;;;;;5070831;28;20119;-78
2020/12/24 15:38:41;;;;;;;27.75;13.52;;;;;;;;;;5060036;28;20048;-80
2020/12/24 15:41:09;;;;;;;18.13;11.05;;;;;;;;;;5078679;28;20037;-79
2020/12/24 15:43:37;;;;;;;26.88;11.68;;;;;;;;;;5077903;28;20124;-80
2020/12/24 15:46:04;;;;;;;21.48;10.38;;;;;;;;;;5069961;28;20059;-78
2020/12/24 15:48:32;;;;;;;18.13;8.90;;;;;;;;;;5059174;28;20098;-78
2020/12/24 15:51:03;;;;;;;23.92;10.00;;;;;;;;;;5068652;28;20411;-79
2020/12/24 15:53:31;;;;;;;16.43;9.53;;;;;;;;;;5076821;28;20044;-78
2020/12/24 15:55:59;;;;;;;13.02;8.40;;;;;;;;;;5038578;28;20048;-77
2020/12/24 15:58:31;;;;;;;17.63;8.88;;;;;;;;;;5055519;28;20040;-77
2020/12/24 16:01:00;;;;;;;19.20;9.52;;;;;;;;;;5076935;28;20048;-78
2020/12/24 16:03:28;;;;;;;18.75;9.13;;;;;;;;;;5068733;28;20040;-78
2020/12/24 16:05:56;;;;;;;17.10;7.90;;;;;;;;;;5054958;28;20928;-77
2020/12/24 16:08:24;;;;;;;16.13;7.80;;;;;;;;;;5071433;28;20079;-78
2020/12/24 16:10:51;;;;;;;14.60;7.05;;;;;;;;;;5052461;28;20151;-78
2020/12/24 16:13:19;;;;;;;16.40;7.88;;;;;;;;;;5054333;28;20059;-80
2020/12/24 16:15:47;;;;;;;27.13;12.60;;;;;;;;;;5072410;28;20132;-77
2020/12/24 16:18:14;;;;;;;25.17;11.70;;;;;;;;;;5070480;28;20518;-77
2020/12/24 16:20:42;;;;;;;24.50;10.15;;;;;;;;;;5044940;28;20102;-75
2020/12/24 16:23:10;;;;;;;22.95;10.68;;;;;;;;;;5053015;28;20424;-74
2020/12/24 16:25:40;;;;;;;27.88;12.70;;;;;;;;;;5044613;28;20041;-74
2020/12/24 16:28:07;;;;;;;27.10;12.60;;;;;;;;;;5050342;28;20057;-73
2020/12/24 16:30:35;;;;;;;28.35;13.63;;;;;;;;;;5027694;28;20056;-74
2020/12/24 16:33:04;;;;;;;41.60;22.77;;;;;;;;;;5047002;28;20048;-74
2020/12/24 16:35:32;;;;;;;35.72;17.90;;;;;;;;;;5044416;28;20904;-74
2020/12/24 16:38:00;;;;;;;26.40;15.65;;;;;;;;;;5043852;28;20501;-75
2020/12/24 16:40:28;;;;;;;41.20;23.05;;;;;;;;;;5011242;28;20602;-74
2020/12/24 16:42:56;;;;;;;36.63;21.55;;;;;;;;;;5027162;28;20080;-76
2020/12/24 16:45:24;;;;;;;39.05;22.00;;;;;;;;;;5025505;28;20065;-77
2020/12/24 16:47:52;;;;;;;38.80;21.95;;;;;;;;;;5051285;28;20400;-74
2020/12/24 16:50:20;;;;;;;38.10;22.00;;;;;;;;;;5067350;28;20044;-74
2020/12/24 16:52:47;;;;;;;35.22;19.90;;;;;;;;;;5046655;28;20795;-74
2020/12/24 16:55:15;;;;;;;30.52;18.00;;;;;;;;;;5043191;28;20098;-73
2020/12/24 16:57:43;;;;;;;30.15;17.20;;;;;;;;;;4918296;28;20064;-75
2020/12/24 17:00:12;;;;;;;33.40;15.88;;;;;;;;;;5045641;28;20142;-76
2020/12/24 17:02:39;;;;;;;31.50;13.55;;;;;;;;;;5054713;28;20044;-76
2020/12/24 17:05:09;;;;;;;31.48;13.90;;;;;;;;;;5066587;28;20044;-76
2020/12/24 17:07:37;;;;;;;33.58;13.60;;;;;;;;;;5071777;28;20154;-76
2020/12/24 17:10:05;;;;;;;28.38;14.45;;;;;;;;;;5036010;28;20056;-76
2020/12/24 17:12:33;;;;;;;23.00;11.60;;;;;;;;;;5010721;28;20068;-75
2020/12/24 17:15:01;;;;;;;22.75;11.00;;;;;;;;;;5061420;28;20065;-75
2020/12/24 17:17:32;;;;;;;28.02;14.20;;;;;;;;;;5046202;28;20117;-76
2020/12/24 17:20:00;;;;;;;21.73;11.45;;;;;;;;;;5029076;28;20571;-75
2020/12/24 17:22:27;;;;;;;30.40;14.98;;;;;;;;;;5070684;28;20044;-76
2020/12/24 17:24:57;;;;;;;30.90;17.90;;;;;;;;;;5059205;28;20476;-76
2020/12/24 17:27:26;;;;;;;26.73;16.40;;;;;;;;;;5073121;28;20375;-76
2020/12/24 17:29:54;;;;;;;28.35;16.27;;;;;;;;;;5049195;28;20062;-75
2020/12/24 17:32:21;;;;;;;23.58;13.80;;;;;;;;;;5049643;28;20063;-75
2020/12/24 17:34:49;;;;;;;21.48;12.98;;;;;;;;;;5071063;28;20051;-76
2020/12/24 17:37:17;;;;;;;29.25;14.13;;;;;;;;;;5031466;28;20160;-76
2020/12/24 17:39:44;;;;;;;31.77;18.77;;;;;;;;;;5063240;28;20048;-76
2020/12/24 17:42:12;;;;;;;26.67;13.85;;;;;;;;;;5028627;28;20082;-75
2020/12/24 17:44:40;;;;;;;21.58;11.30;;;;;;;;;;5044245;28;20170;-75
2020/12/24 17:47:07;;;;;;;22.30;11.68;;;;;;;;;;5010519;28;20515;-75
2020/12/24 17:49:35;;;;;;;30.65;15.80;;;;;;;;;;5051160;28;20052;-75
2020/12/24 17:52:03;;;;;;;24.00;12.43;;;;;;;;;;5044576;28;20044;-75
2020/12/24 17:54:31;;;;;;;21.20;12.43;;;;;;;;;;4995249;28;20149;-76
2020/12/24 17:57:00;;;;;;;19.33;10.80;;;;;;;;;;5044693;28;20040;-73
2020/12/24 17:59:38;;;;;;;19.40;8.35;;;;;;;;;;5037155;28;20044;-74
2020/12/24 18:02:06;;;;;;;19.05;8.80;;;;;;;;;;5027744;28;20433;-75
2020/12/24 18:04:34;;;;;;;15.90;8.65;;;;;;;;;;5034854;28;20045;-74
2020/12/24 18:07:02;;;;;;;19.80;9.48;;;;;;;;;;5011701;28;20067;-76
2020/12/24 18:09:30;;;;;;;21.77;9.15;;;;;;;;;;5046267;28;20875;-75
2020/12/24 18:11:57;;;;;;;20.83;10.70;;;;;;;;;;5028256;28;20430;-76
2020/12/24 18:14:25;;;;;;;19.67;10.98;;;;;;;;;;5044558;28;20131;-75
2020/12/24 18:16:57;;;;;;;18.27;10.40;;;;;;;;;;5069053;28;20984;-75
2020/12/24 18:19:28;;;;;;;17.42;10.60;;;;;;;;;;5047013;28;20048;-76
2020/12/24 18:21:58;;;;;;;19.08;10.15;;;;;;;;;;5064520;28;20064;-75
2020/12/24 18:24:25;;;;;;;15.52;8.00;;;;;;;;;;5047442;28;20047;-76
2020/12/24 18:26:55;;;;;;;14.60;7.93;;;;;;;;;;5074824;28;20051;-75
2020/12/24 18:29:23;;;;;;;9.85;4.47;;;;;;;;;;5069148;28;20124;-75
2020/12/24 18:31:51;;;;;;;6.20;2.90;;;;;;;;;;5065439;28;20048;-76
2020/12/24 18:34:20;;;;;;;6.30;2.70;;;;;;;;;;5047398;28;20766;-75
2020/12/24 18:36:48;;;;;;;4.32;2.60;;;;;;;;;;5015190;28;20812;-75
2020/12/24 18:39:22;;;;;;;4.47;2.60;;;;;;;;;;5002273;28;20246;-75
2020/12/24 18:41:50;;;;;;;10.30;5.90;;;;;;;;;;5029091;28;20082;-75
2020/12/24 18:44:18;;;;;;;6.03;3.30;;;;;;;;;;5028701;28;20069;-75
2020/12/24 18:46:56;;;;;;;5.68;3.03;;;;;;;;;;5058809;28;21028;-76
2020/12/24 18:49:25;;;;;;;6.93;2.78;;;;;;;;;;5073650;28;20040;-74
2020/12/24 18:51:53;;;;;;;4.75;2.50;;;;;;;;;;5073457;28;20098;-76
2020/12/24 18:54:22;;;;;;;4.50;3.42;;;;;;;;;;5067102;28;20055;-75
2020/12/24 18:56:53;;;;;;;4.70;2.70;;;;;;;;;;5050716;28;20063;-75
2020/12/24 18:59:21;;;;;;;4.18;2.58;;;;;;;;;;5050188;28;20060;-75
2020/12/24 19:01:48;;;;;;;4.80;3.13;;;;;;;;;;5052375;28;20049;-75
2020/12/24 19:04:17;;;;;;;5.47;2.85;;;;;;;;;;5014393;28;20064;-75
2020/12/24 19:06:44;;;;;;;5.13;3.47;;;;;;;;;;5053729;28;20040;-75
2020/12/24 19:09:12;;;;;;;5.40;3.88;;;;;;;;;;5047163;28;20063;-76
2020/12/24 19:11:41;;;;;;;6.93;3.50;;;;;;;;;;5046000;28;20130;-75
2020/12/24 19:14:10;;;;;;;6.25;3.72;;;;;;;;;;5029914;28;20087;-75
2020/12/24 19:16:37;;;;;;;7.88;4.35;;;;;;;;;;5046743;28;20095;-75
2020/12/24 19:19:09;;;;;;;7.18;4.97;;;;;;;;;;5029845;28;20068;-74
2020/12/24 19:21:36;;;;;;;5.82;3.95;;;;;;;;;;5029740;28;20056;-75
2020/12/24 19:24:04;;;;;;;7.75;5.93;;;;;;;;;;5048174;28;20051;-75
2020/12/24 19:26:32;;;;;;;8.65;6.00;;;;;;;;;;5054830;28;20044;-75
2020/12/24 19:28:59;;;;;;;5.88;4.15;;;;;;;;;;5066114;28;20135;-75
2020/12/24 19:31:27;;;;;;;8.10;4.72;;;;;;;;;;5058226;28;20515;-75
2020/12/24 19:33:55;;;;;;;5.60;3.83;;;;;;;;;;5044008;28;20468;-75
2020/12/24 19:36:23;;;;;;;8.13;4.13;;;;;;;;;;5045667;28;20060;-76
2020/12/24 19:38:50;;;;;;;6.57;4.00;;;;;;;;;;5031731;28;20052;-77
2020/12/24 19:41:18;;;;;;;7.00;5.25;;;;;;;;;;5011948;28;20068;-78
2020/12/24 19:43:49;;;;;;;7.55;5.40;;;;;;;;;;5010770;28;20495;-76
2020/12/24 19:46:18;;;;;;;9.00;6.07;;;;;;;;;;5020056;28;20072;-76
2020/12/24 19:48:46;;;;;;;9.60;6.82;;;;;;;;;;5030585;28;20061;-75
2020/12/24 19:51:15;;;;;;;7.13;5.22;;;;;;;;;;5030216;28;20048;-76
2020/12/24 19:53:43;;;;;;;6.03;5.43;;;;;;;;;;5046915;28;20044;-75
2020/12/24 19:56:13;;;;;;;10.13;6.90;;;;;;;;;;5002871;28;20122;-75
2020/12/24 19:58:43;;;;;;;8.00;5.80;;;;;;;;;;5026230;28;20061;-75
2020/12/24 20:01:12;;;;;;;9.50;7.00;;;;;;;;;;4997261;28;20148;-77
2020/12/24 20:03:46;;;;;;;7.88;6.28;;;;;;;;;;5034509;28;20049;-77
2020/12/24 20:06:17;;;;;;;10.02;8.05;;;;;;;;;;5028714;28;20040;-77
2020/12/24 20:08:46;;;;;;;10.35;6.85;;;;;;;;;;4996073;28;20068;-75
2020/12/24 20:11:14;;;;;;;7.68;6.53;;;;;;;;;;5030354;28;20089;-75
2020/12/24 20:13:42;;;;;;;9.85;6.85;;;;;;;;;;5037739;28;20049;-76
2020/12/24 20:16:12;;;;;;;9.43;7.68;;;;;;;;;;5030583;28;20088;-77
2020/12/24 20:18:40;;;;;;;10.45;6.97;;;;;;;;;;5032278;28;20037;-78
2020/12/24 20:21:08;;;;;;;10.80;8.07;;;;;;;;;;5045364;28;20491;-75
2020/12/24 20:23:36;;;;;;;12.50;8.30;;;;;;;;;;5055663;28;20044;-76
2020/12/24 20:26:05;;;;;;;11.68;7.50;;;;;;;;;;5019519;28;20060;-77
2020/12/24 20:30:44;;;;;;;9.18;4.68;;;;;;;;;;5164774;27;20425;-76
2020/12/24 20:33:14;;;;;;;6.05;4.38;;;;;;;;;;5082459;27;169020;-76
2020/12/24 20:35:41;;;;;;;4.43;3.45;;;;;;;;;;5048845;28;84683;-76
2020/12/24 20:38:10;;;;;;;6.28;3.45;;;;;;;;;;5036318;28;20072;-78
2020/12/24 20:40:39;;;;;;;5.95;3.80;;;;;;;;;;5045667;28;20407;-77
2020/12/24 20:43:07;;;;;;;5.00;3.60;;;;;;;;;;5072789;28;20060;-78
2020/12/24 20:45:35;;;;;;;7.75;5.18;;;;;;;;;;5068208;28;20157;-76
2020/12/24 20:48:03;;;;;;;7.32;5.38;;;;;;;;;;5054032;28;20067;-77
2020/12/24 20:50:32;;;;;;;9.43;6.85;;;;;;;;;;5054395;28;20040;-77
2020/12/24 20:53:01;;;;;;;5.95;4.30;;;;;;;;;;5054433;28;20081;-77
2020/12/24 20:55:29;;;;;;;4.93;3.60;;;;;;;;;;5073399;28;20048;-77
2020/12/24 20:57:57;;;;;;;5.95;4.40;;;;;;;;;;5059030;28;20097;-78
2020/12/24 21:00:25;;;;;;;5.55;3.92;;;;;;;;;;5057588;28;20566;-76
2020/12/24 21:02:53;;;;;;;7.13;3.78;;;;;;;;;;5056672;28;20064;-77
2020/12/24 21:05:21;;;;;;;7.03;4.40;;;;;;;;;;5056414;28;20063;-75
2020/12/24 21:07:48;;;;;;;6.47;3.50;;;;;;;;;;5071940;28;20131;-77
2020/12/24 21:10:16;;;;;;;7.13;3.05;;;;;;;;;;5056241;28;20115;-76
2020/12/24 21:12:44;;;;;;;3.75;3.13;;;;;;;;;;5057082;28;21029;-76
2020/12/24 21:15:12;;;;;;;6.15;4.28;;;;;;;;;;5037378;28;20455;-77
2020/12/24 21:17:41;;;;;;;4.28;3.03;;;;;;;;;;5053240;28;20055;-76
2020/12/24 21:20:09;;;;;;;5.45;3.35;;;;;;;;;;5063740;28;20062;-76
2020/12/24 21:22:37;;;;;;;4.78;2.72;;;;;;;;;;5050334;28;20045;-76
2020/12/24 21:25:05;;;;;;;5.20;3.13;;;;;;;;;;5083705;28;20051;-76
2020/12/24 21:27:33;;;;;;;6.82;3.38;;;;;;;;;;5066153;28;20236;-76
2020/12/24 21:30:01;;;;;;;9.40;4.72;;;;;;;;;;5082110;28;20154;-76
2020/12/24 21:32:35;;;;;;;6.57;3.90;;;;;;;;;;5055099;28;20075;-77
2020/12/24 21:35:03;;;;;;;8.63;3.80;;;;;;;;;;5036592;28;20076;-77
2020/12/24 21:37:31;;;;;;;6.82;3.58;;;;;;;;;;5034444;28;20167;-77
2020/12/24 21:39:59;;;;;;;6.85;3.72;;;;;;;;;;5036248;28;20054;-76
2020/12/24 21:42:27;;;;;;;5.93;3.70;;;;;;;;;;5020263;28;20048;-76
2020/12/24 21:44:55;;;;;;;3.88;2.65;;;;;;;;;;5021860;28;20051;-76
2020/12/24 21:47:24;;;;;;;3.13;2.47;;;;;;;;;;5022960;28;20064;-76
2020/12/24 21:49:52;;;;;;;2.97;1.95;;;;;;;;;;5036223;28;20044;-76
2020/12/24 21:52:20;;;;;;;3.20;2.08;;;;;;;;;;5021608;28;20097;-74
2020/12/24 21:54:48;;;;;;;3.95;2.67;;;;;;;;;;5050875;28;101188;-75
2020/12/24 21:57:15;;;;;;;4.20;3.50;;;;;;;;;;5058367;28;20044;-76
2020/12/24 21:59:43;;;;;;;3.80;3.40;;;;;;;;;;5044662;28;20051;-75
2020/12/24 22:02:15;;;;;;;5.90;3.75;;;;;;;;;;5049135;28;20577;-75
2020/12/24 22:04:43;;;;;;;4.25;2.75;;;;;;;;;;5054700;28;20435;-76
2020/12/24 22:07:12;;;;;;;3.88;2.45;;;;;;;;;;5055747;28;20146;-75
2020/12/24 22:09:40;;;;;;;4.78;3.25;;;;;;;;;;5036317;28;20079;-75
2020/12/24 22:12:08;;;;;;;4.85;3.40;;;;;;;;;;5020153;28;20045;-75
2020/12/24 22:14:39;;;;;;;4.82;3.63;;;;;;;;;;5067767;28;20044;-75
2020/12/24 22:17:08;;;;;;;4.70;3.15;;;;;;;;;;5073635;28;20477;-75
2020/12/24 22:19:37;;;;;;;4.30;2.88;;;;;;;;;;5078465;28;20059;-75
2020/12/24 22:22:05;;;;;;;6.53;3.75;;;;;;;;;;5086345;28;20051;-75
2020/12/24 22:24:32;;;;;;;5.82;3.58;;;;;;;;;;5073388;28;20039;-75
2020/12/24 22:27:00;;;;;;;4.07;3.20;;;;;;;;;;5055105;28;20465;-76
2020/12/24 22:29:30;;;;;;;4.40;2.92;;;;;;;;;;5068755;28;20856;-76
2020/12/24 22:31:58;;;;;;;5.03;3.03;;;;;;;;;;5069681;28;20131;-75
2020/12/24 22:34:26;;;;;;;5.88;4.10;;;;;;;;;;5086671;28;20060;-76
2020/12/24 22:36:54;;;;;;;5.15;3.33;;;;;;;;;;5069694;28;20047;-75
2020/12/24 22:39:21;;;;;;;5.35;3.40;;;;;;;;;;5070848;28;20760;-80
2020/12/24 22:41:57;;;;;;;4.50;2.75;;;;;;;;;;5065284;28;20145;-78
2020/12/24 22:44:24;;;;;;;4.45;2.85;;;;;;;;;;5041887;28;20044;-80
2020/12/24 22:46:52;;;;;;;4.40;3.35;;;;;;;;;;5057398;28;20117;-81
2020/12/24 22:49:20;;;;;;;5.35;3.78;;;;;;;;;;5073514;28;20056;-81
2020/12/24 22:51:47;;;;;;;5.25;3.83;;;;;;;;;;5073367;28;20415;-81
2020/12/24 22:54:15;;;;;;;7.30;4.47;;;;;;;;;;5090509;28;20121;-81
2020/12/24 22:56:47;;;;;;;5.97;3.45;;;;;;;;;;5058611;28;20122;-81
2020/12/24 22:59:15;;;;;;;5.93;3.20;;;;;;;;;;5049156;28;20634;-81
2020/12/24 23:01:43;;;;;;;7.28;4.28;;;;;;;;;;5063981;28;20060;-81
2020/12/24 23:04:11;;;;;;;5.93;3.70;;;;;;;;;;5030960;28;20558;-81
2020/12/24 23:06:41;;;;;;;5.35;3.28;;;;;;;;;;5057816;28;20056;-81
2020/12/24 23:09:12;;;;;;;4.60;2.80;;;;;;;;;;5057280;28;20066;-80
2020/12/24 23:11:40;;;;;;;6.03;3.67;;;;;;;;;;5084275;28;20112;-79
2020/12/24 23:14:08;;;;;;;5.70;3.45;;;;;;;;;;5067005;28;20146;-82
2020/12/24 23:16:37;;;;;;;5.38;3.42;;;;;;;;;;5077077;28;20142;-80
2020/12/24 23:19:05;;;;;;;3.90;2.92;;;;;;;;;;5084160;28;20509;-79
2020/12/24 23:21:32;;;;;;;4.80;2.72;;;;;;;;;;5056818;28;20052;-79
2020/12/24 23:24:00;;;;;;;4.65;2.42;;;;;;;;;;5057222;28;20079;-79
2020/12/24 23:26:28;;;;;;;4.18;2.65;;;;;;;;;;5091036;28;20085;-79